This is the latest recevied weather packets stored in our database for station/object OH2MUI. If no packets are shown the sender has not sent any weather packets the latest 10 day(s).
| Time | Temp. | Humidity | Pressure | Rain* | Wind** | Luminosity | Snow |
|---|---|---|---|---|---|---|---|
| 1777458027 | 8.33° C | 48% | 1026.8 hPa | 0 mm | - | - | - |
| 1777457012 | 7.22° C | 49% | 1026.8 hPa | 0 mm | - | - | - |
| 1777455914 | 7.22° C | 49% | 1026.9 hPa | 0 mm | - | - | - |
| 1777454826 | 6.67° C | - | - | 0 mm | - | - | - |
| 1777454824 | 6.67° C | 50% | 1027.1 hPa | 0 mm | - | - | - |
| 1777453664 | 6.67° C | 50% | 1027.3 hPa | 0 mm | - | - | - |
| 1777452488 | 7.22° C | - | - | - | - | - | - |
| 1777452484 | 6.67° C | 50% | 1027.4 hPa | 0 mm | - | - | - |
| 1777451327 | 6.67° C | 49% | 1027.3 hPa | 0 mm | - | - | - |
| 1777450254 | 6.67° C | 49% | 1027.3 hPa | 0 mm | - | - | - |
| 1777449234 | 6.67° C | 50% | 1027.5 hPa | 0 mm | - | - | - |
| 1777448139 | 5.56° C | 52% | 1027.4 hPa | 0 mm | - | - | - |
| 1777447159 | 5° C | 56% | 1027.4 hPa | 0 mm | - | - | - |
| 1777445969 | 4.44° C | 57% | 1027.5 hPa | 0 mm | - | - | - |
| 1777444901 | 4.44° C | 59% | 1027.5 hPa | 0 mm | - | - | - |
| 1777443799 | 3.33° C | 62% | 1027.6 hPa | 0 mm | - | - | - |
| 1777442789 | 2.22° C | 69% | 1027.7 hPa | 0 mm | - | - | - |
| 1777441803 | 1.67° C | 70% | 1027.7 hPa | 0 mm | - | - | - |
| 1777440744 | 1.11° C | 71% | 1027.6 hPa | 0 mm | - | - | - |
| 1777439704 | 0.56° C | 72% | 1027.4 hPa | 0 mm | - | - | - |
| 1777438569 | 0° C | 72% | 1027.3 hPa | 0 mm | - | - | - |
| 1777437443 | 0° C | 72% | 1027.2 hPa | 0 mm | - | - | - |
| 1777436469 | 0° C | 72% | 1027.2 hPa | 0 mm | - | - | - |
| 1777435494 | 0° C | 72% | 1027.1 hPa | 0 mm | - | - | - |
| 1777434490 | -0.56° C | 72% | 1027 hPa | 0 mm | - | - | - |
* Rain latest hour (hover to see other rain measurements)
** Current wind speed in m/s (hover to see current wind gust speed)